createdAt,value
2022-08-11T00:00:12.000Z,20.3
2022-08-11T00:01:18.000Z,20.6
2022-08-11T00:02:24.000Z,19.6
2022-08-11T00:03:30.000Z,19.9
2022-08-11T00:04:36.000Z,20.6
2022-08-11T00:05:42.000Z,20.6
2022-08-11T00:06:48.000Z,20.3
2022-08-11T00:08:59.000Z,20.3
2022-08-11T00:10:05.000Z,20.6
2022-08-11T00:11:10.000Z,19.6
2022-08-11T00:12:16.000Z,20.6
2022-08-11T00:13:21.000Z,20.3
2022-08-11T00:14:26.000Z,20.9
2022-08-11T00:15:32.000Z,21.2
2022-08-11T00:16:38.000Z,20.6
2022-08-11T00:17:44.000Z,20.3
2022-08-11T00:19:56.000Z,21.2
2022-08-11T00:21:02.000Z,20.6
2022-08-11T00:22:08.000Z,20.3
2022-08-11T00:23:15.000Z,20.6
2022-08-11T00:24:21.000Z,20.3
2022-08-11T00:25:27.000Z,20.3
2022-08-11T00:26:33.000Z,20.6
2022-08-11T00:27:39.000Z,20.3
2022-08-11T00:28:44.000Z,19.9
2022-08-11T00:29:50.000Z,19.9
2022-08-11T00:30:56.000Z,21.2
2022-08-11T00:32:02.000Z,21.2
2022-08-11T00:33:08.000Z,20.6
2022-08-11T00:34:14.000Z,20.3
2022-08-11T00:35:20.000Z,20.3
2022-08-11T00:36:26.000Z,19.9
2022-08-11T00:37:32.000Z,20.6
2022-08-11T00:38:39.000Z,19.9
2022-08-11T00:39:45.000Z,20.6
2022-08-11T00:41:57.000Z,20.3
2022-08-11T00:43:02.000Z,21.2
2022-08-11T00:44:08.000Z,19.9
2022-08-11T00:45:14.000Z,19.9
2022-08-11T00:46:20.000Z,19.6
2022-08-11T00:47:26.000Z,20.6
2022-08-11T00:48:32.000Z,20.3
2022-08-11T00:49:38.000Z,20.9
2022-08-11T00:50:44.000Z,20.3
2022-08-11T00:51:50.000Z,20.9
2022-08-11T00:52:56.000Z,20.6
2022-08-11T00:54:03.000Z,20.6
2022-08-11T00:55:09.000Z,20.9
2022-08-11T00:56:15.000Z,19.9
2022-08-11T00:57:20.000Z,20.6
2022-08-11T00:58:26.000Z,19.6
2022-08-11T00:59:32.000Z,19.6
2022-08-11T01:00:38.000Z,20.3
2022-08-11T01:01:44.000Z,21.2
2022-08-11T01:02:50.000Z,20.3
2022-08-11T01:03:56.000Z,20.9
2022-08-11T01:05:02.000Z,19.9
2022-08-11T01:06:09.000Z,20.3
2022-08-11T01:07:15.000Z,19.9
2022-08-11T01:08:21.000Z,19.9
2022-08-11T01:09:27.000Z,20.9
2022-08-11T01:10:33.000Z,20.3
2022-08-11T01:11:38.000Z,20.3
2022-08-11T01:12:44.000Z,19.3
2022-08-11T01:13:50.000Z,20.9
2022-08-11T01:14:56.000Z,19.6
2022-08-11T01:16:02.000Z,19.9
2022-08-11T01:17:08.000Z,20.6
2022-08-11T01:18:14.000Z,19.3
2022-08-11T01:19:20.000Z,19.9
2022-08-11T01:20:26.000Z,19.9
2022-08-11T01:21:33.000Z,20.3
2022-08-11T01:22:39.000Z,20.3
2022-08-11T01:23:45.000Z,19.6
2022-08-11T01:24:51.000Z,19.9
2022-08-11T01:25:56.000Z,19.9
2022-08-11T01:27:02.000Z,19.9
2022-08-11T01:28:08.000Z,19.9
2022-08-11T01:29:14.000Z,19.9
2022-08-11T01:30:20.000Z,19.9
2022-08-11T01:31:26.000Z,19.6
2022-08-11T01:32:32.000Z,19.6
2022-08-11T01:33:38.000Z,19.6
2022-08-11T01:34:44.000Z,19.9
2022-08-11T01:36:57.000Z,19.9
2022-08-11T01:38:03.000Z,20.3
2022-08-11T01:39:09.000Z,20.3
2022-08-11T01:40:14.000Z,19.9
2022-08-11T01:41:20.000Z,20.3
2022-08-11T01:42:26.000Z,20.3
2022-08-11T01:43:32.000Z,19.6
2022-08-11T01:44:38.000Z,20.3
2022-08-11T01:45:44.000Z,19.6
2022-08-11T01:46:50.000Z,19.9
2022-08-11T01:47:56.000Z,19.9
2022-08-11T01:49:02.000Z,19.9
2022-08-11T01:50:08.000Z,20.6
2022-08-11T01:51:15.000Z,19.3
2022-08-11T01:52:21.000Z,19.6
2022-08-11T01:53:27.000Z,19
2022-08-11T01:54:32.000Z,19.9
2022-08-11T01:55:38.000Z,19.3
2022-08-11T01:56:44.000Z,18.6
2022-08-11T01:57:50.000Z,19.9
2022-08-11T01:58:56.000Z,20.3
2022-08-11T02:00:02.000Z,19
2022-08-11T02:01:08.000Z,19.3
2022-08-11T02:02:14.000Z,19.6
2022-08-11T02:03:20.000Z,20.3
2022-08-11T02:04:27.000Z,19.9
2022-08-11T02:05:33.000Z,20.3
2022-08-11T02:06:39.000Z,19.6
2022-08-11T02:07:44.000Z,19.6
2022-08-11T02:08:49.000Z,19
2022-08-11T02:09:55.000Z,19.9
2022-08-11T02:11:01.000Z,19.3
2022-08-11T02:12:07.000Z,19.9
2022-08-11T02:13:13.000Z,19.3
2022-08-11T02:14:18.000Z,20.3
2022-08-11T02:15:23.000Z,19.6
2022-08-11T02:16:29.000Z,20.3
2022-08-11T02:17:35.000Z,19
2022-08-11T02:18:42.000Z,19.6
2022-08-11T02:19:48.000Z,19.9
2022-08-11T02:20:54.000Z,20.3
2022-08-11T02:22:00.000Z,20.3
2022-08-11T02:23:06.000Z,19.9
2022-08-11T02:24:12.000Z,19.6
2022-08-11T02:25:18.000Z,20.3
2022-08-11T02:26:24.000Z,19.6
2022-08-11T02:27:29.000Z,20.3
2022-08-11T02:28:35.000Z,19.6
2022-08-11T02:29:41.000Z,19.3
2022-08-11T02:31:54.000Z,19.6
2022-08-11T02:33:00.000Z,20.3
2022-08-11T02:34:06.000Z,19.9
2022-08-11T02:35:12.000Z,19
2022-08-11T02:36:18.000Z,20.6
2022-08-11T02:37:24.000Z,20.3
2022-08-11T02:38:29.000Z,19.9
2022-08-11T02:39:34.000Z,19.9
2022-08-11T02:40:39.000Z,20.3
2022-08-11T02:41:44.000Z,19.6
2022-08-11T02:42:50.000Z,19.3
2022-08-11T02:43:56.000Z,19.6
2022-08-11T02:45:03.000Z,19.6
2022-08-11T02:46:09.000Z,19
2022-08-11T02:47:15.000Z,19
2022-08-11T02:48:21.000Z,20.3
2022-08-11T02:49:27.000Z,19.6
2022-08-11T02:50:33.000Z,19.3
2022-08-11T02:51:39.000Z,19
2022-08-11T02:52:45.000Z,18.6
2022-08-11T02:53:51.000Z,19.3
2022-08-11T02:54:57.000Z,19.6
2022-08-11T02:56:02.000Z,19.3
2022-08-11T02:57:08.000Z,19.9
2022-08-11T02:58:14.000Z,19.9
2022-08-11T02:59:21.000Z,19.3
2022-08-11T03:00:27.000Z,20.9
2022-08-11T03:01:33.000Z,19.6
2022-08-11T03:02:39.000Z,19.6
2022-08-11T03:03:45.000Z,19.6
2022-08-11T03:04:51.000Z,20.6
2022-08-11T03:05:57.000Z,19.6
2022-08-11T03:07:03.000Z,19.3
2022-08-11T03:08:09.000Z,19.9
2022-08-11T03:09:15.000Z,19.6
2022-08-11T03:10:20.000Z,19.6
2022-08-11T03:11:26.000Z,19
2022-08-11T03:12:33.000Z,19.9
2022-08-11T03:13:39.000Z,19.9
2022-08-11T03:14:45.000Z,19.3
2022-08-11T03:15:51.000Z,20.3
2022-08-11T03:16:57.000Z,19
2022-08-11T03:18:03.000Z,19.6
2022-08-11T03:19:09.000Z,19.9
2022-08-11T03:20:15.000Z,19.6
2022-08-11T03:21:21.000Z,19.6
2022-08-11T03:22:27.000Z,18.6
2022-08-11T03:23:33.000Z,19.6
2022-08-11T03:24:38.000Z,19.3
2022-08-11T03:26:50.000Z,19
2022-08-11T03:27:57.000Z,19.9
2022-08-11T03:29:03.000Z,19
2022-08-11T03:30:09.000Z,19.3
2022-08-11T03:31:15.000Z,18.6
2022-08-11T03:32:21.000Z,19.6
2022-08-11T03:33:27.000Z,19.3
2022-08-11T03:34:33.000Z,19.6
2022-08-11T03:35:39.000Z,19
2022-08-11T03:36:45.000Z,19
2022-08-11T03:37:51.000Z,19.3
2022-08-11T03:38:56.000Z,19
2022-08-11T03:40:02.000Z,19
2022-08-11T03:41:08.000Z,19.6
2022-08-11T03:42:15.000Z,19
2022-08-11T03:43:21.000Z,20.3
2022-08-11T03:44:27.000Z,19.3
2022-08-11T03:45:33.000Z,19
2022-08-11T03:46:39.000Z,19.3
2022-08-11T03:47:45.000Z,19
2022-08-11T03:48:51.000Z,19.6
2022-08-11T03:49:57.000Z,19
2022-08-11T03:51:03.000Z,19.9
2022-08-11T03:52:09.000Z,19.9
2022-08-11T03:53:14.000Z,19.3
2022-08-11T03:54:21.000Z,19
2022-08-11T03:55:27.000Z,19.3
2022-08-11T03:56:33.000Z,19.9
2022-08-11T03:57:39.000Z,19.6
2022-08-11T03:59:51.000Z,20.9
2022-08-11T04:00:57.000Z,19.3
2022-08-11T04:02:03.000Z,19.3
2022-08-11T04:03:09.000Z,19
2022-08-11T04:04:15.000Z,19.3
2022-08-11T04:05:21.000Z,18.3
2022-08-11T04:06:27.000Z,19.6
2022-08-11T04:07:32.000Z,19.6
2022-08-11T04:08:38.000Z,19
2022-08-11T04:09:44.000Z,19.6
2022-08-11T04:10:50.000Z,19.6
2022-08-11T04:11:56.000Z,19.6
2022-08-11T04:13:01.000Z,19.3
2022-08-11T04:14:06.000Z,19.3
2022-08-11T04:15:12.000Z,19.3
2022-08-11T04:16:18.000Z,18.3
2022-08-11T04:17:24.000Z,19
2022-08-11T04:18:30.000Z,19.9
2022-08-11T04:19:36.000Z,19.3
2022-08-11T04:20:42.000Z,19.3
2022-08-11T04:21:48.000Z,19
2022-08-11T04:22:55.000Z,19.9
2022-08-11T04:24:01.000Z,19.6
2022-08-11T04:25:07.000Z,19.6
2022-08-11T04:26:13.000Z,19.3
2022-08-11T04:27:19.000Z,19.3
2022-08-11T04:28:24.000Z,19.3
2022-08-11T04:29:30.000Z,19.3
2022-08-11T04:30:36.000Z,18.6
2022-08-11T04:32:48.000Z,19.6
2022-08-11T04:33:54.000Z,19
2022-08-11T04:35:00.000Z,19
2022-08-11T04:36:07.000Z,19.6
2022-08-11T04:37:13.000Z,19.3
2022-08-11T04:38:19.000Z,18.6
2022-08-11T04:39:25.000Z,19.6
2022-08-11T04:40:31.000Z,19
2022-08-11T04:41:37.000Z,19.3
2022-08-11T04:42:42.000Z,19
2022-08-11T04:43:48.000Z,18.6
2022-08-11T04:44:54.000Z,19.6
2022-08-11T04:47:06.000Z,19
2022-08-11T04:48:12.000Z,19
2022-08-11T04:49:18.000Z,19
2022-08-11T04:50:24.000Z,19.9
2022-08-11T04:51:31.000Z,18.3
2022-08-11T04:52:37.000Z,18.6
2022-08-11T04:53:43.000Z,18.6
2022-08-11T04:54:49.000Z,19
2022-08-11T04:55:55.000Z,19
2022-08-11T04:57:00.000Z,18.6
2022-08-11T04:58:06.000Z,18.6
2022-08-11T04:59:12.000Z,19
2022-08-11T05:00:18.000Z,19.6
2022-08-11T05:01:24.000Z,19.9
2022-08-11T05:02:30.000Z,18.6
2022-08-11T05:03:36.000Z,19
2022-08-11T05:05:48.000Z,19
2022-08-11T05:06:55.000Z,19.3
2022-08-11T05:08:01.000Z,19.6
2022-08-11T05:09:07.000Z,19.3
2022-08-11T05:10:13.000Z,18.6
2022-08-11T05:11:19.000Z,18.3
2022-08-11T05:12:24.000Z,19
2022-08-11T05:13:30.000Z,19
2022-08-11T05:14:36.000Z,18.3
2022-08-11T05:15:42.000Z,18.6
2022-08-11T05:16:48.000Z,19.3
2022-08-11T05:17:54.000Z,19
2022-08-11T05:19:00.000Z,18.3
2022-08-11T05:20:07.000Z,19
2022-08-11T05:21:12.000Z,20.3
2022-08-11T05:22:17.000Z,19.3
2022-08-11T05:23:23.000Z,18.6
2022-08-11T05:24:28.000Z,19
2022-08-11T05:25:33.000Z,19
2022-08-11T05:27:45.000Z,19.3
2022-08-11T05:28:51.000Z,19.3
2022-08-11T05:29:57.000Z,19
2022-08-11T05:31:03.000Z,19.6
2022-08-11T05:32:09.000Z,19.3
2022-08-11T05:33:15.000Z,19
2022-08-11T05:34:22.000Z,19.3
2022-08-11T05:35:28.000Z,19
2022-08-11T05:36:34.000Z,19
2022-08-11T05:37:40.000Z,19.3
2022-08-11T05:38:46.000Z,19
2022-08-11T05:39:51.000Z,19
2022-08-11T05:40:57.000Z,18.6
2022-08-11T05:42:03.000Z,19.3
2022-08-11T05:43:09.000Z,19.9
2022-08-11T05:44:15.000Z,19
2022-08-11T05:45:21.000Z,18.3
2022-08-11T05:46:27.000Z,19
2022-08-11T05:47:33.000Z,19.3
2022-08-11T05:48:39.000Z,18.6
2022-08-11T05:49:46.000Z,19.3
2022-08-11T05:50:52.000Z,19
2022-08-11T05:51:58.000Z,19
2022-08-11T05:53:04.000Z,18.3
2022-08-11T05:54:10.000Z,18.6
2022-08-11T05:55:15.000Z,18.3
2022-08-11T05:56:21.000Z,19
2022-08-11T05:57:27.000Z,18.6
2022-08-11T05:58:32.000Z,19
2022-08-11T06:00:43.000Z,19.3
2022-08-11T06:01:49.000Z,18.6
2022-08-11T06:02:55.000Z,18.3
2022-08-11T06:04:00.000Z,19.9
2022-08-11T06:05:06.000Z,18.6
2022-08-11T06:06:12.000Z,19
2022-08-11T06:07:18.000Z,19.3
2022-08-11T06:08:23.000Z,18.6
2022-08-11T06:09:29.000Z,18.6
2022-08-11T06:10:35.000Z,18.3
2022-08-11T06:11:41.000Z,19
2022-08-11T06:12:47.000Z,18.6
2022-08-11T06:13:53.000Z,18.6
2022-08-11T06:14:59.000Z,18.6
2022-08-11T06:16:05.000Z,19.3
2022-08-11T06:17:12.000Z,18.3
2022-08-11T06:18:18.000Z,19
2022-08-11T06:19:24.000Z,18.3
2022-08-11T06:20:30.000Z,19.3
2022-08-11T06:21:36.000Z,18
2022-08-11T06:22:41.000Z,18.6
2022-08-11T06:23:47.000Z,18.6
2022-08-11T06:24:53.000Z,18.3
2022-08-11T06:25:59.000Z,19.3
2022-08-11T06:27:05.000Z,18.6
2022-08-11T06:28:12.000Z,18.3
2022-08-11T06:29:18.000Z,19
2022-08-11T06:30:24.000Z,18.6
2022-08-11T06:31:29.000Z,18
2022-08-11T06:32:34.000Z,18
2022-08-11T06:33:40.000Z,19
2022-08-11T06:34:46.000Z,17.7
2022-08-11T06:35:51.000Z,17.7
2022-08-11T06:36:56.000Z,18.6
2022-08-11T06:38:02.000Z,18.3
2022-08-11T06:39:08.000Z,19.3
2022-08-11T06:40:14.000Z,18.3
2022-08-11T06:41:20.000Z,18.3
2022-08-11T06:42:27.000Z,18.6
2022-08-11T06:43:33.000Z,19.3
2022-08-11T06:44:39.000Z,19
2022-08-11T06:45:45.000Z,19
2022-08-11T06:46:51.000Z,19
2022-08-11T06:47:57.000Z,18.3
2022-08-11T06:49:03.000Z,18.6
2022-08-11T06:50:09.000Z,19.3
2022-08-11T06:51:15.000Z,19
2022-08-11T06:52:20.000Z,18.3
2022-08-11T06:53:26.000Z,19
2022-08-11T06:54:32.000Z,18.6
2022-08-11T06:55:38.000Z,19.3
2022-08-11T06:56:44.000Z,19
2022-08-11T06:57:51.000Z,18
2022-08-11T06:58:57.000Z,18.6
2022-08-11T07:00:03.000Z,19
2022-08-11T07:01:09.000Z,19
2022-08-11T07:02:15.000Z,18.6
2022-08-11T07:03:21.000Z,18
2022-08-11T07:04:27.000Z,18.6
2022-08-11T07:05:33.000Z,19
2022-08-11T07:06:38.000Z,19
2022-08-11T07:07:44.000Z,18.3
2022-08-11T07:08:50.000Z,18.3
2022-08-11T07:09:57.000Z,18
2022-08-11T07:11:03.000Z,19
2022-08-11T07:12:09.000Z,19.3
2022-08-11T07:13:15.000Z,18.6
2022-08-11T07:14:21.000Z,19
2022-08-11T07:15:27.000Z,18.3
2022-08-11T07:17:39.000Z,18.6
2022-08-11T07:18:45.000Z,19
2022-08-11T07:19:51.000Z,18.6
2022-08-11T07:20:56.000Z,18
2022-08-11T07:22:02.000Z,18.6
2022-08-11T07:23:08.000Z,18
2022-08-11T07:24:13.000Z,18.3
2022-08-11T07:25:19.000Z,18.6
2022-08-11T07:26:24.000Z,18
2022-08-11T07:27:29.000Z,18.6
2022-08-11T07:28:35.000Z,19
2022-08-11T07:29:41.000Z,18.6
2022-08-11T07:30:47.000Z,18
2022-08-11T07:31:53.000Z,19.3
2022-08-11T07:32:59.000Z,18.3
2022-08-11T07:34:05.000Z,18.6
2022-08-11T07:35:11.000Z,18.3
2022-08-11T07:36:17.000Z,18.6
2022-08-11T07:37:24.000Z,19
2022-08-11T07:38:30.000Z,18.3
2022-08-11T07:39:36.000Z,18
2022-08-11T07:40:42.000Z,19.3
2022-08-11T07:41:47.000Z,18.6
2022-08-11T07:42:53.000Z,18
2022-08-11T07:43:59.000Z,18.6
2022-08-11T07:45:05.000Z,18.6
2022-08-11T07:46:11.000Z,19
2022-08-11T07:47:17.000Z,18.6
2022-08-11T07:48:23.000Z,19
2022-08-11T07:50:35.000Z,19
2022-08-11T07:51:41.000Z,18.6
2022-08-11T07:52:48.000Z,18.6
2022-08-11T07:53:54.000Z,18
2022-08-11T07:55:00.000Z,18.6
2022-08-11T07:56:05.000Z,18
2022-08-11T07:57:11.000Z,18.6
2022-08-11T07:58:17.000Z,19.3
2022-08-11T07:59:23.000Z,18.3
2022-08-11T08:00:29.000Z,18
2022-08-11T08:01:35.000Z,18.6
2022-08-11T08:02:41.000Z,17.7
2022-08-11T08:03:47.000Z,19.3
2022-08-11T08:04:53.000Z,18
2022-08-11T08:05:59.000Z,17.4
2022-08-11T08:07:05.000Z,17.7
2022-08-11T08:08:12.000Z,18.6
2022-08-11T08:09:18.000Z,18.3
2022-08-11T08:10:23.000Z,19
2022-08-11T08:11:29.000Z,19
2022-08-11T08:13:41.000Z,18
2022-08-11T08:14:47.000Z,18.6
2022-08-11T08:15:53.000Z,18.6
2022-08-11T08:16:59.000Z,18.6
2022-08-11T08:18:05.000Z,18.3
2022-08-11T08:19:11.000Z,18.6
2022-08-11T08:20:17.000Z,18.3
2022-08-11T08:21:24.000Z,18.3
2022-08-11T08:23:36.000Z,19.3
2022-08-11T08:24:41.000Z,18.6
2022-08-11T08:25:47.000Z,19
2022-08-11T08:26:53.000Z,18.6
2022-08-11T08:27:59.000Z,17.7
2022-08-11T08:29:05.000Z,18
2022-08-11T08:30:11.000Z,18.6
2022-08-11T08:31:17.000Z,18.6
2022-08-11T08:32:23.000Z,18.3
2022-08-11T08:34:36.000Z,18.6
2022-08-11T08:35:41.000Z,18.3
2022-08-11T08:36:46.000Z,19
2022-08-11T08:37:52.000Z,18.3
2022-08-11T08:38:58.000Z,17.4
2022-08-11T08:40:04.000Z,18.6
2022-08-11T08:41:10.000Z,19.3
2022-08-11T08:42:16.000Z,19
2022-08-11T08:43:22.000Z,18.3
2022-08-11T08:44:28.000Z,18
2022-08-11T08:45:34.000Z,18.6
2022-08-11T08:46:40.000Z,18.6
2022-08-11T08:47:45.000Z,18.6
2022-08-11T08:48:51.000Z,19
2022-08-11T08:49:57.000Z,18
2022-08-11T08:51:03.000Z,18
2022-08-11T08:52:09.000Z,18.3
2022-08-11T08:53:15.000Z,18.3
2022-08-11T08:54:21.000Z,19
2022-08-11T08:55:27.000Z,19
2022-08-11T08:56:33.000Z,18
2022-08-11T08:57:39.000Z,18.6
2022-08-11T08:58:45.000Z,18.6
2022-08-11T08:59:51.000Z,19
2022-08-11T09:00:57.000Z,18
2022-08-11T09:02:04.000Z,18.6
2022-08-11T09:03:09.000Z,18.6
2022-08-11T09:04:15.000Z,18.3
2022-08-11T09:05:21.000Z,18.6
2022-08-11T09:07:33.000Z,17.7
2022-08-11T09:08:39.000Z,18.6
2022-08-11T09:09:45.000Z,18.6
2022-08-11T09:10:51.000Z,18.6
2022-08-11T09:11:57.000Z,18.3
2022-08-11T09:13:03.000Z,18.6
2022-08-11T09:14:09.000Z,18.6
2022-08-11T09:15:14.000Z,18
2022-08-11T09:16:20.000Z,18.6
2022-08-11T09:17:26.000Z,18
2022-08-11T09:18:32.000Z,17.7
2022-08-11T09:19:38.000Z,19
2022-08-11T09:20:44.000Z,19
2022-08-11T09:21:50.000Z,18.6
2022-08-11T09:22:56.000Z,19
2022-08-11T09:24:02.000Z,19.6
2022-08-11T09:25:08.000Z,18.3
2022-08-11T09:26:14.000Z,18.6
2022-08-11T09:27:20.000Z,17.7
2022-08-11T09:28:26.000Z,19.3
2022-08-11T09:29:32.000Z,18.3
2022-08-11T09:30:37.000Z,18.3
2022-08-11T09:31:44.000Z,19.3
2022-08-11T09:32:50.000Z,18.6
2022-08-11T09:33:56.000Z,18.3
2022-08-11T09:35:02.000Z,19.3
2022-08-11T09:36:08.000Z,18.3
2022-08-11T09:37:14.000Z,18.6
2022-08-11T09:38:19.000Z,18.3
2022-08-11T09:39:24.000Z,19
2022-08-11T09:40:29.000Z,18.3
2022-08-11T09:41:34.000Z,18.6
2022-08-11T09:42:40.000Z,18.3
2022-08-11T09:43:46.000Z,19
2022-08-11T09:44:52.000Z,18.3
2022-08-11T09:45:59.000Z,18.6
2022-08-11T09:47:05.000Z,19.3
2022-08-11T09:48:11.000Z,18.3
2022-08-11T09:49:16.000Z,18.6
2022-08-11T09:50:22.000Z,19
2022-08-11T09:51:28.000Z,19.9
2022-08-11T09:52:34.000Z,18.6
2022-08-11T09:53:40.000Z,19
2022-08-11T09:54:46.000Z,18
2022-08-11T09:55:52.000Z,18.6
2022-08-11T09:56:58.000Z,18.3
2022-08-11T09:58:04.000Z,18.6
2022-08-11T09:59:10.000Z,19.6
2022-08-11T10:00:17.000Z,18.3
2022-08-11T10:01:23.000Z,19.3
2022-08-11T10:02:29.000Z,18.6
2022-08-11T10:03:34.000Z,19
2022-08-11T10:04:40.000Z,19
2022-08-11T10:05:46.000Z,18.6
2022-08-11T10:06:52.000Z,18.6
2022-08-11T10:07:58.000Z,18.3
2022-08-11T10:09:04.000Z,18
2022-08-11T10:10:10.000Z,19
2022-08-11T10:11:16.000Z,18.6
2022-08-11T10:13:28.000Z,19.3
2022-08-11T10:14:34.000Z,19
2022-08-11T10:15:41.000Z,18.6
2022-08-11T10:17:53.000Z,18.6
2022-08-11T10:18:58.000Z,18.6
2022-08-11T10:20:04.000Z,19
2022-08-11T10:21:10.000Z,18.6
2022-08-11T10:22:16.000Z,18.6
2022-08-11T10:23:22.000Z,18
2022-08-11T10:24:28.000Z,19.3
2022-08-11T10:25:34.000Z,18.3
2022-08-11T10:26:40.000Z,18.6
2022-08-11T10:27:47.000Z,19
2022-08-11T10:28:53.000Z,18.3
2022-08-11T10:29:59.000Z,18.3
2022-08-11T10:31:05.000Z,18.6
2022-08-11T10:32:11.000Z,18.6
2022-08-11T10:33:16.000Z,18.6
2022-08-11T10:35:28.000Z,18.3
2022-08-11T10:36:33.000Z,18
2022-08-11T10:37:38.000Z,19
2022-08-11T10:38:44.000Z,19
2022-08-11T10:39:50.000Z,18.3
2022-08-11T10:40:56.000Z,18.3
2022-08-11T10:42:03.000Z,19.3
2022-08-11T10:43:09.000Z,18.6
2022-08-11T10:44:15.000Z,18.3
2022-08-11T10:46:27.000Z,19
2022-08-11T10:47:33.000Z,18.6
2022-08-11T10:48:39.000Z,19.3
2022-08-11T10:49:45.000Z,19
2022-08-11T10:50:51.000Z,18.6
2022-08-11T10:51:56.000Z,18.6
2022-08-11T10:53:02.000Z,19.6
2022-08-11T10:54:08.000Z,19
2022-08-11T10:55:14.000Z,19
2022-08-11T10:56:20.000Z,19
2022-08-11T10:57:27.000Z,17.7
2022-08-11T10:58:33.000Z,19
2022-08-11T10:59:39.000Z,19
2022-08-11T11:00:45.000Z,18.3
2022-08-11T11:01:50.000Z,19.9
2022-08-11T11:02:55.000Z,19.3
2022-08-11T11:04:01.000Z,19.9
2022-08-11T11:05:07.000Z,18.3
2022-08-11T11:06:13.000Z,18
2022-08-11T11:07:19.000Z,18.3
2022-08-11T11:08:26.000Z,18.6
2022-08-11T11:09:32.000Z,19
2022-08-11T11:10:38.000Z,19.3
2022-08-11T11:11:44.000Z,19.9
2022-08-11T11:12:50.000Z,18.6
2022-08-11T11:13:56.000Z,19.3
2022-08-11T11:15:02.000Z,19
2022-08-11T11:16:08.000Z,18.6
2022-08-11T11:17:13.000Z,19
2022-08-11T11:19:25.000Z,19
2022-08-11T11:20:31.000Z,19.9
2022-08-11T11:21:37.000Z,19.3
2022-08-11T11:22:43.000Z,19.3
2022-08-11T11:23:50.000Z,18.6
2022-08-11T11:24:56.000Z,19
2022-08-11T11:26:01.000Z,19.3
2022-08-11T11:27:06.000Z,18.6
2022-08-11T11:28:11.000Z,18.3
2022-08-11T11:29:17.000Z,19.3
2022-08-11T11:30:22.000Z,19.6
2022-08-11T11:31:28.000Z,19
2022-08-11T11:32:34.000Z,19.3
2022-08-11T11:33:40.000Z,19.3
2022-08-11T11:34:46.000Z,19.6
2022-08-11T11:35:52.000Z,19.9
2022-08-11T11:36:59.000Z,19
2022-08-11T11:38:05.000Z,19.6
2022-08-11T11:39:11.000Z,19.6
2022-08-11T11:40:17.000Z,19
2022-08-11T11:41:23.000Z,18.3
2022-08-11T11:42:29.000Z,19.9
2022-08-11T11:43:35.000Z,18.3
2022-08-11T11:44:40.000Z,18.3
2022-08-11T11:45:46.000Z,19.3
2022-08-11T11:46:52.000Z,19
2022-08-11T11:47:58.000Z,18.6
2022-08-11T11:49:04.000Z,18.3
2022-08-11T11:50:10.000Z,19.3
2022-08-11T11:51:17.000Z,18.6
2022-08-11T11:52:23.000Z,18.3
2022-08-11T11:53:29.000Z,19.6
2022-08-11T11:54:35.000Z,19.3
2022-08-11T11:55:41.000Z,19
2022-08-11T11:56:47.000Z,19
2022-08-11T11:57:53.000Z,19.3
2022-08-11T12:00:04.000Z,18.3
2022-08-11T12:01:10.000Z,19.3
2022-08-11T12:02:16.000Z,19.3
2022-08-11T12:03:22.000Z,19.6
2022-08-11T12:04:28.000Z,19.6
2022-08-11T12:05:34.000Z,19.6
2022-08-11T12:06:41.000Z,19.3
2022-08-11T12:07:47.000Z,19
2022-08-11T12:08:53.000Z,19.6
2022-08-11T12:09:59.000Z,20.3
2022-08-11T12:11:05.000Z,19.3
2022-08-11T12:12:11.000Z,19
2022-08-11T12:13:16.000Z,19
2022-08-11T12:14:22.000Z,18.6
2022-08-11T12:15:28.000Z,19
2022-08-11T12:16:34.000Z,20.3
2022-08-11T12:17:40.000Z,19.3
2022-08-11T12:18:46.000Z,19.9
2022-08-11T12:19:52.000Z,19
2022-08-11T12:20:58.000Z,18
2022-08-11T12:22:05.000Z,19
2022-08-11T12:23:11.000Z,19.6
2022-08-11T12:24:17.000Z,19.9
2022-08-11T12:25:23.000Z,19.9
2022-08-11T12:26:29.000Z,19.6
2022-08-11T12:27:35.000Z,19.6
2022-08-11T12:28:40.000Z,19.3
2022-08-11T12:29:46.000Z,19.9
2022-08-11T12:30:52.000Z,19.6
2022-08-11T12:31:58.000Z,19.6
2022-08-11T12:33:04.000Z,19.9
2022-08-11T12:34:10.000Z,19
2022-08-11T12:36:23.000Z,18.6
2022-08-11T12:37:29.000Z,19.9
2022-08-11T12:38:35.000Z,19
2022-08-11T12:39:41.000Z,19.9
2022-08-11T12:40:47.000Z,19.9
2022-08-11T12:41:53.000Z,19
2022-08-11T12:42:58.000Z,19.3
2022-08-11T12:44:04.000Z,19.9
2022-08-11T12:45:10.000Z,19.9
2022-08-11T12:46:16.000Z,19.3
2022-08-11T12:47:22.000Z,19.3
2022-08-11T12:48:28.000Z,19.6
2022-08-11T12:49:35.000Z,20.9
2022-08-11T12:50:41.000Z,20.3
2022-08-11T12:51:47.000Z,19.9
2022-08-11T12:52:53.000Z,19.3
2022-08-11T12:53:59.000Z,19.6
2022-08-11T12:55:05.000Z,19.9
2022-08-11T12:56:11.000Z,19.9
2022-08-11T12:57:17.000Z,19.6
2022-08-11T12:58:22.000Z,19.3
2022-08-11T12:59:28.000Z,20.6
2022-08-11T13:00:34.000Z,19.9
2022-08-11T13:01:40.000Z,19.6
2022-08-11T13:02:46.000Z,19.6
2022-08-11T13:03:52.000Z,19.3
2022-08-11T13:04:59.000Z,20.6
2022-08-11T13:06:05.000Z,19.6
2022-08-11T13:07:11.000Z,19.9
2022-08-11T13:09:23.000Z,19.6
2022-08-11T13:10:29.000Z,20.6
2022-08-11T13:11:35.000Z,19.9
2022-08-11T13:12:40.000Z,19.9
2022-08-11T13:13:46.000Z,20.3
2022-08-11T13:14:52.000Z,19.6
2022-08-11T13:15:58.000Z,19.6
2022-08-11T13:17:04.000Z,20.6
2022-08-11T13:18:10.000Z,20.6
2022-08-11T13:19:16.000Z,19.6
2022-08-11T13:20:23.000Z,20.9
2022-08-11T13:21:29.000Z,20.3
2022-08-11T13:22:35.000Z,19.6
2022-08-11T13:23:41.000Z,19.6
2022-08-11T13:24:47.000Z,19.9
2022-08-11T13:25:53.000Z,19.3
2022-08-11T13:26:58.000Z,20.3
2022-08-11T13:28:04.000Z,20.3
2022-08-11T13:29:10.000Z,20.9
2022-08-11T13:31:21.000Z,19.9
2022-08-11T13:32:27.000Z,20.9
2022-08-11T13:33:33.000Z,20.9
2022-08-11T13:34:39.000Z,20.6
2022-08-11T13:35:45.000Z,20.3
2022-08-11T13:36:51.000Z,21.2
2022-08-11T13:37:57.000Z,20.6
2022-08-11T13:39:03.000Z,20.3
2022-08-11T13:40:09.000Z,20.3
2022-08-11T13:41:15.000Z,20.6
2022-08-11T13:42:21.000Z,20.3
2022-08-11T13:43:27.000Z,20.3
2022-08-11T13:44:33.000Z,20.6
2022-08-11T13:45:39.000Z,20.9
2022-08-11T13:46:45.000Z,20.9
2022-08-11T13:47:50.000Z,20.6
2022-08-11T13:48:57.000Z,20.6
2022-08-11T13:50:03.000Z,20.3
2022-08-11T13:51:09.000Z,21.9
2022-08-11T13:52:15.000Z,20.3
2022-08-11T13:53:21.000Z,21.2
2022-08-11T13:54:27.000Z,21.2
2022-08-11T13:55:32.000Z,19.9
2022-08-11T13:56:37.000Z,20.3
2022-08-11T13:57:42.000Z,20.9
2022-08-11T13:58:47.000Z,20.3
2022-08-11T13:59:53.000Z,20.9
2022-08-11T14:00:59.000Z,21.2
2022-08-11T14:02:05.000Z,20.9
2022-08-11T14:03:12.000Z,21.2
2022-08-11T14:04:18.000Z,20.9
2022-08-11T14:05:24.000Z,21.2
2022-08-11T14:06:30.000Z,20.3
2022-08-11T14:07:36.000Z,20.6
2022-08-11T14:08:42.000Z,20.6
2022-08-11T14:09:48.000Z,21.5
2022-08-11T14:10:54.000Z,21.9
2022-08-11T14:12:00.000Z,20.3
2022-08-11T14:13:05.000Z,21.2
2022-08-11T14:14:11.000Z,20.9
2022-08-11T14:15:18.000Z,21.9
2022-08-11T14:16:24.000Z,21.2
2022-08-11T14:17:30.000Z,21.5
2022-08-11T14:18:36.000Z,21.9
2022-08-11T14:19:42.000Z,20.6
2022-08-11T14:20:47.000Z,21.9
2022-08-11T14:21:52.000Z,21.2
2022-08-11T14:22:58.000Z,21.5
2022-08-11T14:24:03.000Z,21.9
2022-08-11T14:25:08.000Z,21.2
2022-08-11T14:26:14.000Z,21.5
2022-08-11T14:27:20.000Z,21.9
2022-08-11T14:28:27.000Z,20.9
2022-08-11T14:29:33.000Z,20.6
2022-08-11T14:30:39.000Z,21.9
2022-08-11T14:31:45.000Z,21.5
2022-08-11T14:32:51.000Z,21.2
2022-08-11T14:33:57.000Z,21.9
2022-08-11T14:35:03.000Z,21.9
2022-08-11T14:37:15.000Z,21.2
2022-08-11T14:38:21.000Z,21.5
2022-08-11T14:39:26.000Z,21.9
2022-08-11T14:40:32.000Z,22.2
2022-08-11T14:41:39.000Z,20.9
2022-08-11T14:42:45.000Z,22.5
2022-08-11T14:43:51.000Z,21.9
2022-08-11T14:44:57.000Z,22.2
2022-08-11T14:46:03.000Z,22.2
2022-08-11T14:48:15.000Z,21.9
2022-08-11T14:49:20.000Z,22.2
2022-08-11T14:50:25.000Z,22.5
2022-08-11T14:51:30.000Z,21.5
2022-08-11T14:52:35.000Z,22.5
2022-08-11T14:53:41.000Z,21.9
2022-08-11T14:54:47.000Z,22.2
2022-08-11T14:55:54.000Z,21.5
2022-08-11T14:57:00.000Z,21.9
2022-08-11T14:58:06.000Z,22.2
2022-08-11T14:59:12.000Z,21.9
2022-08-11T15:00:18.000Z,21.9
2022-08-11T15:01:24.000Z,22.2
2022-08-11T15:02:30.000Z,21.5
2022-08-11T15:03:36.000Z,21.9
2022-08-11T15:04:42.000Z,21.9
2022-08-11T15:05:48.000Z,21.2
2022-08-11T15:06:53.000Z,22.8
2022-08-11T15:08:00.000Z,21.9
2022-08-11T15:09:06.000Z,21.9
2022-08-11T15:10:12.000Z,21.2
2022-08-11T15:11:18.000Z,21.9
2022-08-11T15:12:24.000Z,21.9
2022-08-11T15:13:30.000Z,22.5
2022-08-11T15:14:35.000Z,23.2
2022-08-11T15:15:40.000Z,21.9
2022-08-11T15:16:45.000Z,22.5
2022-08-11T15:17:50.000Z,22.8
2022-08-11T15:18:56.000Z,22.2
2022-08-11T15:20:02.000Z,22.8
2022-08-11T15:21:08.000Z,23.2